sensor_id;sensor_type;location;lat;lon;timestamp;pressure;altitude;pressure_sealevel;temperature;humidity
29163;BME280;20331;53.144;8.208;2023-02-13T00:00:01;104007.44;;;8.83;97.63
29163;BME280;20331;53.144;8.208;2023-02-13T00:10:23;103998.81;;;8.83;97.72
29163;BME280;20331;53.144;8.208;2023-02-13T00:20:55;104008.28;;;8.82;97.15
29163;BME280;20331;53.144;8.208;2023-02-13T00:31:18;103995.19;;;8.76;98.19
29163;BME280;20331;53.144;8.208;2023-02-13T00:41:40;103987.28;;;8.72;98.14
29163;BME280;20331;53.144;8.208;2023-02-13T00:52:02;103971.94;;;8.76;97.67
29163;BME280;20331;53.144;8.208;2023-02-13T01:02:23;103980.59;;;8.77;98.05
29163;BME280;20331;53.144;8.208;2023-02-13T01:12:45;103982.22;;;8.73;97.58
29163;BME280;20331;53.144;8.208;2023-02-13T01:23:06;103977.94;;;8.75;97.95
29163;BME280;20331;53.144;8.208;2023-02-13T01:33:28;103978.75;;;8.73;98.09
29163;BME280;20331;53.144;8.208;2023-02-13T01:43:52;103970.78;;;8.65;98.18
29163;BME280;20331;53.144;8.208;2023-02-13T01:54:20;103964.63;;;8.60;98.10
29163;BME280;20331;53.144;8.208;2023-02-13T02:04:43;103947.34;;;8.59;98.73
29163;BME280;20331;53.144;8.208;2023-02-13T02:15:05;103950.88;;;8.61;98.41
29163;BME280;20331;53.144;8.208;2023-02-13T02:57:35;103918.03;;;8.57;97.40
29163;BME280;20331;53.144;8.208;2023-02-13T03:08:17;103924.78;;;8.52;97.83
29163;BME280;20331;53.144;8.208;2023-02-13T03:18:58;103921.47;;;8.56;97.71
29163;BME280;20331;53.144;8.208;2023-02-13T03:29:43;103913.91;;;8.62;97.84
29163;BME280;20331;53.144;8.208;2023-02-13T03:40:36;103901.00;;;8.62;97.86
29163;BME280;20331;53.144;8.208;2023-02-13T03:51:22;103894.13;;;8.63;97.93
29163;BME280;20331;53.144;8.208;2023-02-13T04:01:47;103902.72;;;8.62;97.87
29163;BME280;20331;53.144;8.208;2023-02-13T04:22:30;103914.84;;;8.64;97.92
29163;BME280;20331;53.144;8.208;2023-02-13T04:32:52;103915.63;;;8.62;98.03
29163;BME280;20331;53.144;8.208;2023-02-13T04:43:13;103924.31;;;8.65;97.84
29163;BME280;20331;53.144;8.208;2023-02-13T04:53:35;103920.84;;;8.65;97.64
29163;BME280;20331;53.144;8.208;2023-02-13T05:03:56;103918.31;;;8.66;97.87
29163;BME280;20331;53.144;8.208;2023-02-13T05:14:17;103917.44;;;8.66;97.69
29163;BME280;20331;53.144;8.208;2023-02-13T05:24:39;103930.31;;;8.64;97.55
29163;BME280;20331;53.144;8.208;2023-02-13T05:35:00;103933.72;;;8.63;98.00
29163;BME280;20331;53.144;8.208;2023-02-13T05:45:24;103925.78;;;8.57;97.65
29163;BME280;20331;53.144;8.208;2023-02-13T05:55:46;103939.53;;;8.56;98.36
29163;BME280;20331;53.144;8.208;2023-02-13T06:06:07;103925.09;;;8.63;98.17
29163;BME280;20331;53.144;8.208;2023-02-13T06:16:29;103943.16;;;8.63;97.81
29163;BME280;20331;53.144;8.208;2023-02-13T06:26:51;103955.94;;;8.58;98.39
29163;BME280;20331;53.144;8.208;2023-02-13T06:37:12;103957.69;;;8.59;98.09
29163;BME280;20331;53.144;8.208;2023-02-13T06:47:34;103974.94;;;8.60;98.09
29163;BME280;20331;53.144;8.208;2023-02-13T06:57:55;103973.34;;;8.65;97.83
29163;BME280;20331;53.144;8.208;2023-02-13T07:08:17;103975.97;;;8.67;97.74
29163;BME280;20331;53.144;8.208;2023-02-13T07:18:39;103975.91;;;8.64;97.59
29163;BME280;20331;53.144;8.208;2023-02-13T07:29:00;103976.78;;;8.64;97.37
29163;BME280;20331;53.144;8.208;2023-02-13T07:39:32;103980.09;;;8.60;97.47
29163;BME280;20331;53.144;8.208;2023-02-13T07:49:53;103985.25;;;8.60;97.72
29163;BME280;20331;53.144;8.208;2023-02-13T08:00:15;103987.00;;;8.61;97.18
29163;BME280;20331;53.144;8.208;2023-02-13T08:10:38;103983.75;;;8.68;97.28
29163;BME280;20331;53.144;8.208;2023-02-13T08:21:18;103985.41;;;8.66;96.29
29163;BME280;20331;53.144;8.208;2023-02-13T08:31:40;103978.59;;;8.68;96.01
29163;BME280;20331;53.144;8.208;2023-02-13T08:42:01;103987.25;;;8.70;96.30
29163;BME280;20331;53.144;8.208;2023-02-13T08:52:24;103994.13;;;8.70;96.25
29163;BME280;20331;53.144;8.208;2023-02-13T09:02:45;103998.47;;;8.71;96.15
29163;BME280;20331;53.144;8.208;2023-02-13T09:13:07;104007.75;;;8.64;95.84
29163;BME280;20331;53.144;8.208;2023-02-13T09:23:32;104005.25;;;8.67;95.77
29163;BME280;20331;53.144;8.208;2023-02-13T09:33:54;104005.31;;;8.70;95.53
29163;BME280;20331;53.144;8.208;2023-02-13T09:44:17;104012.97;;;8.66;94.61
29163;BME280;20331;53.144;8.208;2023-02-13T09:54:55;104007.84;;;8.67;94.38
29163;BME280;20331;53.144;8.208;2023-02-13T10:15:52;104012.19;;;8.70;93.15
29163;BME280;20331;53.144;8.208;2023-02-13T10:26:19;104021.66;;;8.69;92.48
29163;BME280;20331;53.144;8.208;2023-02-13T10:36:44;104015.66;;;8.70;93.50
29163;BME280;20331;53.144;8.208;2023-02-13T11:18:40;103978.63;;;8.99;91.62
29163;BME280;20331;53.144;8.208;2023-02-13T11:29:21;103955.53;;;9.05;92.59
29163;BME280;20331;53.144;8.208;2023-02-13T11:39:45;103964.38;;;9.13;92.44
29163;BME280;20331;53.144;8.208;2023-02-13T11:50:26;103963.53;;;9.14;92.40
29163;BME280;20331;53.144;8.208;2023-02-13T12:00:48;103971.47;;;9.21;92.38
29163;BME280;20331;53.144;8.208;2023-02-13T13:14:14;103921.56;;;9.23;88.74
29163;BME280;20331;53.144;8.208;2023-02-13T13:34:59;103897.44;;;9.23;87.39
29163;BME280;20331;53.144;8.208;2023-02-13T14:06:10;103885.44;;;9.25;87.71
29163;BME280;20331;53.144;8.208;2023-02-13T14:16:40;103881.34;;;9.34;88.78
29163;BME280;20331;53.144;8.208;2023-02-13T14:27:02;103876.06;;;9.28;88.07
29163;BME280;20331;53.144;8.208;2023-02-13T14:37:28;103854.56;;;9.31;88.59
29163;BME280;20331;53.144;8.208;2023-02-13T14:47:51;103858.06;;;9.33;88.12
29163;BME280;20331;53.144;8.208;2023-02-13T14:58:15;103838.38;;;9.38;88.68
29163;BME280;20331;53.144;8.208;2023-02-13T15:08:45;103828.16;;;9.42;88.92
29163;BME280;20331;53.144;8.208;2023-02-13T15:19:12;103830.69;;;9.41;88.63
29163;BME280;20331;53.144;8.208;2023-02-13T15:29:34;103826.41;;;9.41;89.53
29163;BME280;20331;53.144;8.208;2023-02-13T15:40:26;103823.88;;;9.43;89.60
29163;BME280;20331;53.144;8.208;2023-02-13T15:50:48;103825.44;;;9.38;89.65
29163;BME280;20331;53.144;8.208;2023-02-13T16:01:09;103827.06;;;9.33;90.41
29163;BME280;20331;53.144;8.208;2023-02-13T16:11:37;103836.44;;;9.29;90.41
29163;BME280;20331;53.144;8.208;2023-02-13T16:22:05;103833.84;;;9.28;90.12
29163;BME280;20331;53.144;8.208;2023-02-13T16:32:31;103826.88;;;9.25;90.64
29163;BME280;20331;53.144;8.208;2023-02-13T16:43:31;103841.44;;;9.22;89.82
29163;BME280;20331;53.144;8.208;2023-02-13T16:53:35;103833.63;;;9.19;90.25
29163;BME280;20331;53.144;8.208;2023-02-13T17:03:57;103844.59;;;9.10;90.26
29163;BME280;20331;53.144;8.208;2023-02-13T17:14:19;103843.69;;;9.08;90.76
29163;BME280;20331;53.144;8.208;2023-02-13T17:24:41;103844.41;;;9.02;90.80
29163;BME280;20331;53.144;8.208;2023-02-13T17:35:02;103838.25;;;8.97;90.47
29163;BME280;20331;53.144;8.208;2023-02-13T17:45:25;103836.50;;;8.96;89.75
29163;BME280;20331;53.144;8.208;2023-02-13T17:55:47;103839.19;;;9.01;90.09
29163;BME280;20331;53.144;8.208;2023-02-13T18:06:11;103836.66;;;9.02;90.00
29163;BME280;20331;53.144;8.208;2023-02-13T18:16:35;103840.00;;;8.98;89.31
29163;BME280;20331;53.144;8.208;2023-02-13T18:26:58;103833.97;;;8.98;90.11
29163;BME280;20331;53.144;8.208;2023-02-13T18:37:20;103840.81;;;8.97;90.28
29163;BME280;20331;53.144;8.208;2023-02-13T18:47:41;103851.75;;;8.87;89.26
29163;BME280;20331;53.144;8.208;2023-02-13T18:58:03;103851.28;;;8.69;89.70
29163;BME280;20331;53.144;8.208;2023-02-13T19:08:24;103848.97;;;8.47;89.77
29163;BME280;20331;53.144;8.208;2023-02-13T19:18:46;103837.19;;;8.26;89.88
29163;BME280;20331;53.144;8.208;2023-02-13T19:29:08;103841.59;;;8.01;90.35
29163;BME280;20331;53.144;8.208;2023-02-13T19:39:29;103847.19;;;7.87;90.56
29163;BME280;20331;53.144;8.208;2023-02-13T19:49:51;103843.31;;;7.73;90.82
29163;BME280;20331;53.144;8.208;2023-02-13T20:00:13;103836.06;;;7.60;91.00
29163;BME280;20331;53.144;8.208;2023-02-13T20:10:35;103826.19;;;7.47;90.95
29163;BME280;20331;53.144;8.208;2023-02-13T20:20:57;103823.41;;;7.41;91.47
29163;BME280;20331;53.144;8.208;2023-02-13T20:31:19;103825.66;;;7.30;91.60
29163;BME280;20331;53.144;8.208;2023-02-13T20:41:41;103825.47;;;7.24;92.25
29163;BME280;20331;53.144;8.208;2023-02-13T20:52:08;103820.91;;;7.16;91.98
29163;BME280;20331;53.144;8.208;2023-02-13T21:02:30;103835.25;;;7.09;91.88
29163;BME280;20331;53.144;8.208;2023-02-13T21:12:51;103815.91;;;6.95;91.49
29163;BME280;20331;53.144;8.208;2023-02-13T21:23:13;103821.66;;;6.86;91.54
29163;BME280;20331;53.144;8.208;2023-02-13T21:33:35;103826.28;;;6.71;91.43
29163;BME280;20331;53.144;8.208;2023-02-13T21:43:56;103824.94;;;6.57;91.40
29163;BME280;20331;53.144;8.208;2023-02-13T21:54:17;103828.84;;;6.46;91.74
29163;BME280;20331;53.144;8.208;2023-02-13T22:04:40;103823.38;;;6.37;91.73
29163;BME280;20331;53.144;8.208;2023-02-13T22:15:02;103835.81;;;6.27;91.56
29163;BME280;20331;53.144;8.208;2023-02-13T22:25:24;103830.19;;;6.13;91.54
29163;BME280;20331;53.144;8.208;2023-02-13T22:35:45;103832.47;;;6.05;91.98
29163;BME280;20331;53.144;8.208;2023-02-13T22:46:11;103833.13;;;6.00;92.50
29163;BME280;20331;53.144;8.208;2023-02-13T22:56:33;103837.22;;;5.95;91.57
29163;BME280;20331;53.144;8.208;2023-02-13T23:06:54;103843.34;;;5.98;93.21
29163;BME280;20331;53.144;8.208;2023-02-13T23:17:16;103847.50;;;5.95;93.94
29163;BME280;20331;53.144;8.208;2023-02-13T23:27:56;103845.59;;;5.89;94.49
29163;BME280;20331;53.144;8.208;2023-02-13T23:38:18;103848.63;;;5.81;94.04
29163;BME280;20331;53.144;8.208;2023-02-13T23:48:39;103844.19;;;5.77;94.04
29163;BME280;20331;53.144;8.208;2023-02-13T23:59:01;103845.69;;;5.72;94.12
